SIZC weather

Fazenda Fenix Airport
Faria Lemos, Minas Gerais, Brazil

Public forecast

Using degrees Celsius for public forecast. Weather courtesy of forecast.io.

METAR (pilot weather report)

Closest report is Bartolomeu Lisandro Airport, 67.5 nm (124.9 km) SE. Retrieved 2019/09/22 11:00 UTC (19 minutes ago):

SBCP 221100Z 08003KT 9999 SCT015 OVC080 23/21 Q1018

TAF (pilot weather forecast)

Closest forecast is Bartolomeu Lisandro Airport, 67.5 nm (124.9 km) SE. Retrieved 2019/09/22 06:00 UTC (5 hours ago):

TAF SBCP 220300Z 2206/2218 19005KT 3000 DZ BR BKN006TN23/2209Z TX26/2215Z BECMG 2215/2218 17010KT 7000 NSW BKN017 RMK PFV